sensor_id;sensor_type;location;lat;lon;timestamp;P1;durP1;ratioP1;P2;durP2;ratioP2
9034;SDS011;4552;43.422;24.592;2024-01-27T00:00:32;7.30;;;2.53;;
9034;SDS011;4552;43.422;24.592;2024-01-27T00:03:05;5.03;;;2.17;;
9034;SDS011;4552;43.422;24.592;2024-01-27T00:05:33;4.50;;;2.37;;
9034;SDS011;4552;43.422;24.592;2024-01-27T00:08:00;5.20;;;2.70;;
9034;SDS011;4552;43.422;24.592;2024-01-27T00:10:27;2.87;;;2.10;;
9034;SDS011;4552;43.422;24.592;2024-01-27T00:12:54;2.70;;;2.10;;
9034;SDS011;4552;43.422;24.592;2024-01-27T00:15:21;4.27;;;2.20;;
9034;SDS011;4552;43.422;24.592;2024-01-27T00:17:48;5.77;;;2.37;;
9034;SDS011;4552;43.422;24.592;2024-01-27T00:26:36;2.70;;;2.03;;
9034;SDS011;4552;43.422;24.592;2024-01-27T00:29:03;3.30;;;1.97;;
9034;SDS011;4552;43.422;24.592;2024-01-27T00:31:30;2.27;;;1.93;;
9034;SDS011;4552;43.422;24.592;2024-01-27T00:33:57;8.37;;;2.80;;
9034;SDS011;4552;43.422;24.592;2024-01-27T00:36:24;3.80;;;2.00;;
9034;SDS011;4552;43.422;24.592;2024-01-27T00:38:51;2.57;;;2.10;;
9034;SDS011;4552;43.422;24.592;2024-01-27T00:41:19;4.03;;;2.10;;
9034;SDS011;4552;43.422;24.592;2024-01-27T00:43:46;3.83;;;2.17;;
9034;SDS011;4552;43.422;24.592;2024-01-27T00:46:13;2.63;;;2.00;;
9034;SDS011;4552;43.422;24.592;2024-01-27T00:48:40;4.30;;;2.07;;
9034;SDS011;4552;43.422;24.592;2024-01-27T01:04:12;2.07;;;1.73;;
9034;SDS011;4552;43.422;24.592;2024-01-27T01:06:40;4.53;;;2.13;;
9034;SDS011;4552;43.422;24.592;2024-01-27T01:09:07;5.60;;;1.80;;
9034;SDS011;4552;43.422;24.592;2024-01-27T01:11:33;2.03;;;1.70;;
9034;SDS011;4552;43.422;24.592;2024-01-27T01:14:01;2.50;;;1.80;;
9034;SDS011;4552;43.422;24.592;2024-01-27T01:16:28;3.07;;;1.97;;
9034;SDS011;4552;43.422;24.592;2024-01-27T01:25:39;6.30;;;2.10;;
9034;SDS011;4552;43.422;24.592;2024-01-27T01:28:06;2.00;;;1.80;;
9034;SDS011;4552;43.422;24.592;2024-01-27T01:30:35;4.20;;;2.20;;
9034;SDS011;4552;43.422;24.592;2024-01-27T01:33:02;2.60;;;1.67;;
9034;SDS011;4552;43.422;24.592;2024-01-27T01:35:30;5.57;;;2.00;;
9034;SDS011;4552;43.422;24.592;2024-01-27T01:37:57;4.23;;;1.80;;
9034;SDS011;4552;43.422;24.592;2024-01-27T01:40:24;3.07;;;1.83;;
9034;SDS011;4552;43.422;24.592;2024-01-27T01:42:53;3.50;;;2.00;;
9034;SDS011;4552;43.422;24.592;2024-01-27T01:45:20;4.63;;;1.87;;
9034;SDS011;4552;43.422;24.592;2024-01-27T01:47:47;5.03;;;1.77;;
9034;SDS011;4552;43.422;24.592;2024-01-27T02:00:04;2.50;;;2.03;;
9034;SDS011;4552;43.422;24.592;2024-01-27T02:02:32;2.10;;;1.90;;
9034;SDS011;4552;43.422;24.592;2024-01-27T02:04:59;3.67;;;2.20;;
9034;SDS011;4552;43.422;24.592;2024-01-27T02:07:27;3.50;;;2.20;;
9034;SDS011;4552;43.422;24.592;2024-01-27T02:09:53;6.00;;;2.30;;
9034;SDS011;4552;43.422;24.592;2024-01-27T02:12:20;4.00;;;2.00;;
9034;SDS011;4552;43.422;24.592;2024-01-27T02:14:47;2.60;;;1.80;;
9034;SDS011;4552;43.422;24.592;2024-01-27T02:17:16;7.40;;;2.07;;
9034;SDS011;4552;43.422;24.592;2024-01-27T02:19:43;1.97;;;1.77;;
9034;SDS011;4552;43.422;24.592;2024-01-27T02:22:10;2.13;;;1.93;;
9034;SDS011;4552;43.422;24.592;2024-01-27T02:24:39;5.17;;;2.20;;
9034;SDS011;4552;43.422;24.592;2024-01-27T02:27:06;4.83;;;2.10;;
9034;SDS011;4552;43.422;24.592;2024-01-27T02:29:33;3.17;;;1.90;;
9034;SDS011;4552;43.422;24.592;2024-01-27T02:32:00;5.63;;;2.10;;
9034;SDS011;4552;43.422;24.592;2024-01-27T02:58:01;2.77;;;1.97;;
9034;SDS011;4552;43.422;24.592;2024-01-27T03:00:28;3.10;;;2.20;;
9034;SDS011;4552;43.422;24.592;2024-01-27T03:02:55;1.90;;;1.70;;
9034;SDS011;4552;43.422;24.592;2024-01-27T03:08:45;3.10;;;1.87;;
9034;SDS011;4552;43.422;24.592;2024-01-27T03:11:13;5.13;;;2.03;;
9034;SDS011;4552;43.422;24.592;2024-01-27T03:13:42;3.53;;;2.23;;
9034;SDS011;4552;43.422;24.592;2024-01-27T03:16:11;3.90;;;2.17;;
9034;SDS011;4552;43.422;24.592;2024-01-27T03:18:38;2.10;;;1.90;;
9034;SDS011;4552;43.422;24.592;2024-01-27T03:21:05;2.30;;;1.73;;
9034;SDS011;4552;43.422;24.592;2024-01-27T03:23:33;3.50;;;1.83;;
9034;SDS011;4552;43.422;24.592;2024-01-27T03:26:01;9.20;;;2.10;;
9034;SDS011;4552;43.422;24.592;2024-01-27T03:28:28;3.93;;;1.87;;
9034;SDS011;4552;43.422;24.592;2024-01-27T03:30:57;4.43;;;1.73;;
9034;SDS011;4552;43.422;24.592;2024-01-27T03:33:25;2.73;;;1.73;;
9034;SDS011;4552;43.422;24.592;2024-01-27T03:35:54;4.53;;;2.00;;
9034;SDS011;4552;43.422;24.592;2024-01-27T03:38:22;8.07;;;2.10;;
9034;SDS011;4552;43.422;24.592;2024-01-27T03:40:49;2.27;;;1.67;;
9034;SDS011;4552;43.422;24.592;2024-01-27T03:43:16;3.13;;;1.60;;
9034;SDS011;4552;43.422;24.592;2024-01-27T03:45:43;2.97;;;1.60;;
9034;SDS011;4552;43.422;24.592;2024-01-27T03:48:12;3.87;;;1.73;;
9034;SDS011;4552;43.422;24.592;2024-01-27T04:00:44;3.63;;;1.90;;
9034;SDS011;4552;43.422;24.592;2024-01-27T04:03:13;2.27;;;1.80;;
9034;SDS011;4552;43.422;24.592;2024-01-27T04:05:40;3.17;;;2.10;;
9034;SDS011;4552;43.422;24.592;2024-01-27T04:08:07;2.00;;;1.67;;
9034;SDS011;4552;43.422;24.592;2024-01-27T04:10:34;2.00;;;1.80;;
9034;SDS011;4552;43.422;24.592;2024-01-27T04:13:02;2.37;;;2.00;;
9034;SDS011;4552;43.422;24.592;2024-01-27T04:15:30;2.83;;;1.80;;
9034;SDS011;4552;43.422;24.592;2024-01-27T04:18:02;1.93;;;1.73;;
9034;SDS011;4552;43.422;24.592;2024-01-27T04:27:15;5.77;;;2.63;;
9034;SDS011;4552;43.422;24.592;2024-01-27T04:29:42;1.80;;;1.70;;
9034;SDS011;4552;43.422;24.592;2024-01-27T04:32:09;3.90;;;1.70;;
9034;SDS011;4552;43.422;24.592;2024-01-27T04:41:20;2.57;;;2.33;;
9034;SDS011;4552;43.422;24.592;2024-01-27T04:43:48;4.97;;;2.13;;
9034;SDS011;4552;43.422;24.592;2024-01-27T04:46:16;2.53;;;1.70;;
9034;SDS011;4552;43.422;24.592;2024-01-27T04:48:43;2.60;;;2.13;;
9034;SDS011;4552;43.422;24.592;2024-01-27T04:51:10;3.03;;;2.17;;
9034;SDS011;4552;43.422;24.592;2024-01-27T04:53:37;2.33;;;2.10;;
9034;SDS011;4552;43.422;24.592;2024-01-27T04:56:04;2.13;;;1.93;;
9034;SDS011;4552;43.422;24.592;2024-01-27T04:58:34;2.30;;;2.10;;
9034;SDS011;4552;43.422;24.592;2024-01-27T05:01:03;3.50;;;2.20;;
9034;SDS011;4552;43.422;24.592;2024-01-27T05:03:30;4.70;;;2.43;;
9034;SDS011;4552;43.422;24.592;2024-01-27T05:05:57;2.43;;;2.10;;
9034;SDS011;4552;43.422;24.592;2024-01-27T05:08:24;4.53;;;2.33;;
9034;SDS011;4552;43.422;24.592;2024-01-27T05:10:51;4.63;;;2.10;;
9034;SDS011;4552;43.422;24.592;2024-01-27T05:13:18;5.43;;;1.87;;
9034;SDS011;4552;43.422;24.592;2024-01-27T05:15:45;2.37;;;1.90;;
9034;SDS011;4552;43.422;24.592;2024-01-27T05:18:14;5.90;;;2.10;;
9034;SDS011;4552;43.422;24.592;2024-01-27T05:27:28;4.73;;;2.40;;
9034;SDS011;4552;43.422;24.592;2024-01-27T05:29:55;3.77;;;1.83;;
9034;SDS011;4552;43.422;24.592;2024-01-27T05:32:22;2.20;;;2.00;;
9034;SDS011;4552;43.422;24.592;2024-01-27T05:38:13;2.67;;;2.10;;
9034;SDS011;4552;43.422;24.592;2024-01-27T05:40:47;4.03;;;2.43;;
9034;SDS011;4552;43.422;24.592;2024-01-27T05:43:22;3.90;;;2.80;;
9034;SDS011;4552;43.422;24.592;2024-01-27T05:45:49;5.50;;;2.50;;
9034;SDS011;4552;43.422;24.592;2024-01-27T05:48:17;2.23;;;1.97;;
9034;SDS011;4552;43.422;24.592;2024-01-27T06:49:28;2.20;;;1.70;;
9034;SDS011;4552;43.422;24.592;2024-01-27T06:51:55;2.90;;;1.50;;
9034;SDS011;4552;43.422;24.592;2024-01-27T06:54:22;1.60;;;1.50;;
9034;SDS011;4552;43.422;24.592;2024-01-27T06:56:49;1.50;;;1.40;;
9034;SDS011;4552;43.422;24.592;2024-01-27T06:59:16;1.70;;;1.60;;
9034;SDS011;4552;43.422;24.592;2024-01-27T07:01:45;1.40;;;1.30;;
9034;SDS011;4552;43.422;24.592;2024-01-27T07:04:13;3.37;;;1.87;;
9034;SDS011;4552;43.422;24.592;2024-01-27T07:06:47;1.67;;;1.57;;
9034;SDS011;4552;43.422;24.592;2024-01-27T07:09:17;1.97;;;1.57;;
9034;SDS011;4552;43.422;24.592;2024-01-27T07:11:58;2.80;;;1.80;;
9034;SDS011;4552;43.422;24.592;2024-01-27T07:14:25;2.63;;;1.60;;
9034;SDS011;4552;43.422;24.592;2024-01-27T07:16:52;2.80;;;2.00;;
9034;SDS011;4552;43.422;24.592;2024-01-27T07:19:19;4.83;;;1.70;;
9034;SDS011;4552;43.422;24.592;2024-01-27T07:21:48;2.20;;;1.60;;
9034;SDS011;4552;43.422;24.592;2024-01-27T07:24:15;1.50;;;1.40;;
9034;SDS011;4552;43.422;24.592;2024-01-27T07:26:42;2.37;;;2.03;;
9034;SDS011;4552;43.422;24.592;2024-01-27T07:29:09;1.90;;;1.80;;
9034;SDS011;4552;43.422;24.592;2024-01-27T07:31:36;2.13;;;1.83;;
9034;SDS011;4552;43.422;24.592;2024-01-27T07:34:02;4.40;;;1.90;;
9034;SDS011;4552;43.422;24.592;2024-01-27T07:56:47;3.53;;;2.10;;
9034;SDS011;4552;43.422;24.592;2024-01-27T07:59:14;2.53;;;1.90;;
9034;SDS011;4552;43.422;24.592;2024-01-27T08:01:40;2.27;;;1.93;;
9034;SDS011;4552;43.422;24.592;2024-01-27T08:04:08;2.30;;;2.10;;
9034;SDS011;4552;43.422;24.592;2024-01-27T08:47:02;4.23;;;2.70;;
9034;SDS011;4552;43.422;24.592;2024-01-27T08:49:29;3.40;;;2.50;;
9034;SDS011;4552;43.422;24.592;2024-01-27T08:51:56;4.67;;;2.77;;
9034;SDS011;4552;43.422;24.592;2024-01-27T08:54:23;5.80;;;4.40;;
9034;SDS011;4552;43.422;24.592;2024-01-27T08:56:50;3.57;;;2.90;;
9034;SDS011;4552;43.422;24.592;2024-01-27T08:59:17;3.03;;;2.33;;
9034;SDS011;4552;43.422;24.592;2024-01-27T09:01:44;5.07;;;2.73;;
9034;SDS011;4552;43.422;24.592;2024-01-27T09:17:13;3.23;;;2.90;;
9034;SDS011;4552;43.422;24.592;2024-01-27T09:19:42;3.33;;;2.63;;
9034;SDS011;4552;43.422;24.592;2024-01-27T09:22:09;3.10;;;2.27;;
9034;SDS011;4552;43.422;24.592;2024-01-27T09:24:36;3.97;;;2.50;;
9034;SDS011;4552;43.422;24.592;2024-01-27T09:27:03;3.13;;;2.80;;
9034;SDS011;4552;43.422;24.592;2024-01-27T09:29:30;3.57;;;2.67;;
9034;SDS011;4552;43.422;24.592;2024-01-27T09:31:57;3.57;;;2.77;;
9034;SDS011;4552;43.422;24.592;2024-01-27T09:34:24;3.80;;;2.70;;
9034;SDS011;4552;43.422;24.592;2024-01-27T09:43:29;7.33;;;2.27;;
9034;SDS011;4552;43.422;24.592;2024-01-27T09:45:57;4.53;;;3.40;;
9034;SDS011;4552;43.422;24.592;2024-01-27T09:48:25;3.93;;;2.97;;
9034;SDS011;4552;43.422;24.592;2024-01-27T09:50:52;3.20;;;2.40;;
9034;SDS011;4552;43.422;24.592;2024-01-27T09:53:20;3.97;;;2.70;;
9034;SDS011;4552;43.422;24.592;2024-01-27T09:55:47;5.07;;;2.90;;
9034;SDS011;4552;43.422;24.592;2024-01-27T09:58:15;4.60;;;3.00;;
9034;SDS011;4552;43.422;24.592;2024-01-27T10:00:44;3.03;;;2.80;;
9034;SDS011;4552;43.422;24.592;2024-01-27T10:03:12;3.63;;;2.43;;
9034;SDS011;4552;43.422;24.592;2024-01-27T10:05:39;4.10;;;2.50;;
9034;SDS011;4552;43.422;24.592;2024-01-27T10:08:09;6.50;;;2.50;;
9034;SDS011;4552;43.422;24.592;2024-01-27T10:10:36;3.17;;;2.40;;
9034;SDS011;4552;43.422;24.592;2024-01-27T10:13:04;2.40;;;2.20;;
9034;SDS011;4552;43.422;24.592;2024-01-27T10:15:33;2.67;;;2.30;;
9034;SDS011;4552;43.422;24.592;2024-01-27T10:18:10;2.77;;;2.40;;
9034;SDS011;4552;43.422;24.592;2024-01-27T10:30:46;1.70;;;1.60;;
9034;SDS011;4552;43.422;24.592;2024-01-27T10:33:15;2.10;;;2.00;;
9034;SDS011;4552;43.422;24.592;2024-01-27T10:35:43;3.40;;;2.33;;
9034;SDS011;4552;43.422;24.592;2024-01-27T10:38:10;2.07;;;1.83;;
9034;SDS011;4552;43.422;24.592;2024-01-27T10:40:37;2.90;;;2.10;;
9034;SDS011;4552;43.422;24.592;2024-01-27T10:43:05;3.67;;;2.20;;
9034;SDS011;4552;43.422;24.592;2024-01-27T10:45:34;2.37;;;2.13;;
9034;SDS011;4552;43.422;24.592;2024-01-27T10:48:17;2.97;;;1.63;;
9034;SDS011;4552;43.422;24.592;2024-01-27T10:57:05;1.63;;;1.53;;
9034;SDS011;4552;43.422;24.592;2024-01-27T10:59:36;1.97;;;1.47;;
9034;SDS011;4552;43.422;24.592;2024-01-27T11:02:05;3.30;;;1.70;;
9034;SDS011;4552;43.422;24.592;2024-01-27T11:04:39;2.00;;;1.80;;
9034;SDS011;4552;43.422;24.592;2024-01-27T11:07:08;2.50;;;1.57;;
9034;SDS011;4552;43.422;24.592;2024-01-27T11:09:36;1.37;;;1.30;;
9034;SDS011;4552;43.422;24.592;2024-01-27T11:12:04;1.13;;;1.13;;
9034;SDS011;4552;43.422;24.592;2024-01-27T11:14:34;1.20;;;1.20;;
9034;SDS011;4552;43.422;24.592;2024-01-27T11:17:01;1.23;;;1.20;;
9034;SDS011;4552;43.422;24.592;2024-01-27T11:19:28;1.30;;;1.20;;
9034;SDS011;4552;43.422;24.592;2024-01-27T11:22:03;1.47;;;1.37;;
9034;SDS011;4552;43.422;24.592;2024-01-27T11:24:31;1.93;;;1.40;;
9034;SDS011;4552;43.422;24.592;2024-01-27T11:27:01;1.40;;;1.30;;
9034;SDS011;4552;43.422;24.592;2024-01-27T11:29:31;1.20;;;1.20;;
9034;SDS011;4552;43.422;24.592;2024-01-27T11:32:00;1.40;;;1.30;;
9034;SDS011;4552;43.422;24.592;2024-01-27T11:34:28;1.53;;;1.40;;
9034;SDS011;4552;43.422;24.592;2024-01-27T12:00:40;1.00;;;1.00;;
9034;SDS011;4552;43.422;24.592;2024-01-27T12:03:07;1.43;;;1.33;;
9034;SDS011;4552;43.422;24.592;2024-01-27T12:12:17;1.30;;;1.20;;
9034;SDS011;4552;43.422;24.592;2024-01-27T12:14:45;1.43;;;1.33;;
9034;SDS011;4552;43.422;24.592;2024-01-27T12:17:15;1.50;;;1.40;;
9034;SDS011;4552;43.422;24.592;2024-01-27T12:19:45;1.40;;;1.30;;
9034;SDS011;4552;43.422;24.592;2024-01-27T12:22:21;2.17;;;1.37;;
9034;SDS011;4552;43.422;24.592;2024-01-27T12:24:52;2.83;;;1.33;;
9034;SDS011;4552;43.422;24.592;2024-01-27T12:27:20;1.43;;;1.33;;
9034;SDS011;4552;43.422;24.592;2024-01-27T12:29:48;1.60;;;1.37;;
9034;SDS011;4552;43.422;24.592;2024-01-27T12:32:18;1.53;;;1.43;;
9034;SDS011;4552;43.422;24.592;2024-01-27T12:34:45;1.40;;;1.30;;
9034;SDS011;4552;43.422;24.592;2024-01-27T13:10:57;1.50;;;1.30;;
9034;SDS011;4552;43.422;24.592;2024-01-27T13:13:24;1.60;;;1.50;;
9034;SDS011;4552;43.422;24.592;2024-01-27T13:15:51;1.50;;;1.40;;
9034;SDS011;4552;43.422;24.592;2024-01-27T13:18:18;1.50;;;1.40;;
9034;SDS011;4552;43.422;24.592;2024-01-27T13:34:00;1.20;;;1.20;;
9034;SDS011;4552;43.422;24.592;2024-01-27T13:36:27;2.60;;;1.50;;
9034;SDS011;4552;43.422;24.592;2024-01-27T13:38:54;3.63;;;1.90;;
9034;SDS011;4552;43.422;24.592;2024-01-27T13:41:21;1.57;;;1.40;;
9034;SDS011;4552;43.422;24.592;2024-01-27T13:43:48;2.20;;;1.50;;
9034;SDS011;4552;43.422;24.592;2024-01-27T13:46:15;2.10;;;1.47;;
9034;SDS011;4552;43.422;24.592;2024-01-27T13:48:43;1.87;;;1.77;;
9034;SDS011;4552;43.422;24.592;2024-01-27T13:51:15;1.90;;;1.50;;
9034;SDS011;4552;43.422;24.592;2024-01-27T13:53:44;5.23;;;1.70;;
9034;SDS011;4552;43.422;24.592;2024-01-27T13:56:10;2.30;;;1.77;;
9034;SDS011;4552;43.422;24.592;2024-01-27T13:58:37;2.53;;;1.67;;
9034;SDS011;4552;43.422;24.592;2024-01-27T14:01:06;3.03;;;1.63;;
9034;SDS011;4552;43.422;24.592;2024-01-27T14:03:33;3.30;;;1.90;;
9034;SDS011;4552;43.422;24.592;2024-01-27T14:12:29;3.13;;;1.70;;
9034;SDS011;4552;43.422;24.592;2024-01-27T14:15:01;4.00;;;2.00;;
9034;SDS011;4552;43.422;24.592;2024-01-27T14:17:36;1.53;;;1.43;;
9034;SDS011;4552;43.422;24.592;2024-01-27T14:20:03;1.50;;;1.40;;
9034;SDS011;4552;43.422;24.592;2024-01-27T14:22:34;3.80;;;1.70;;
9034;SDS011;4552;43.422;24.592;2024-01-27T14:25:04;2.97;;;1.70;;
9034;SDS011;4552;43.422;24.592;2024-01-27T14:27:36;1.57;;;1.43;;
9034;SDS011;4552;43.422;24.592;2024-01-27T14:30:03;1.27;;;1.23;;
9034;SDS011;4552;43.422;24.592;2024-01-27T14:32:31;3.67;;;1.30;;
9034;SDS011;4552;43.422;24.592;2024-01-27T14:34:58;1.43;;;1.33;;
9034;SDS011;4552;43.422;24.592;2024-01-27T14:47:20;1.63;;;1.50;;
9034;SDS011;4552;43.422;24.592;2024-01-27T14:49:48;2.03;;;1.60;;
9034;SDS011;4552;43.422;24.592;2024-01-27T15:32:39;1.40;;;1.30;;
9034;SDS011;4552;43.422;24.592;2024-01-27T15:35:07;4.00;;;1.90;;
9034;SDS011;4552;43.422;24.592;2024-01-27T15:47:07;2.77;;;2.00;;
9034;SDS011;4552;43.422;24.592;2024-01-27T15:49:35;1.73;;;1.57;;
9034;SDS011;4552;43.422;24.592;2024-01-27T15:52:03;5.90;;;1.90;;
9034;SDS011;4552;43.422;24.592;2024-01-27T15:54:31;2.73;;;2.10;;
9034;SDS011;4552;43.422;24.592;2024-01-27T15:56:58;2.30;;;1.70;;
9034;SDS011;4552;43.422;24.592;2024-01-27T15:59:26;1.90;;;1.80;;
9034;SDS011;4552;43.422;24.592;2024-01-27T16:01:53;2.17;;;1.83;;
9034;SDS011;4552;43.422;24.592;2024-01-27T16:04:20;1.60;;;1.50;;
9034;SDS011;4552;43.422;24.592;2024-01-27T16:06:49;1.63;;;1.50;;
9034;SDS011;4552;43.422;24.592;2024-01-27T16:09:16;1.87;;;1.50;;
9034;SDS011;4552;43.422;24.592;2024-01-27T16:11:43;2.73;;;1.50;;
9034;SDS011;4552;43.422;24.592;2024-01-27T16:14:17;2.20;;;1.70;;
9034;SDS011;4552;43.422;24.592;2024-01-27T16:16:59;2.73;;;1.70;;
9034;SDS011;4552;43.422;24.592;2024-01-27T16:19:26;3.37;;;2.10;;
9034;SDS011;4552;43.422;24.592;2024-01-27T16:21:56;4.20;;;1.60;;
9034;SDS011;4552;43.422;24.592;2024-01-27T16:24:26;3.10;;;2.13;;
9034;SDS011;4552;43.422;24.592;2024-01-27T16:26:53;2.10;;;1.90;;
9034;SDS011;4552;43.422;24.592;2024-01-27T16:29:20;3.83;;;2.13;;
9034;SDS011;4552;43.422;24.592;2024-01-27T16:31:47;1.80;;;1.70;;
9034;SDS011;4552;43.422;24.592;2024-01-27T16:34:18;1.87;;;1.73;;
9034;SDS011;4552;43.422;24.592;2024-01-27T16:36:45;2.40;;;2.00;;
9034;SDS011;4552;43.422;24.592;2024-01-27T16:39:14;1.97;;;1.87;;
9034;SDS011;4552;43.422;24.592;2024-01-27T16:41:41;3.17;;;1.90;;
9034;SDS011;4552;43.422;24.592;2024-01-27T16:44:11;2.50;;;2.10;;
9034;SDS011;4552;43.422;24.592;2024-01-27T17:17:19;2.07;;;1.87;;
9034;SDS011;4552;43.422;24.592;2024-01-27T17:19:46;3.47;;;1.90;;
9034;SDS011;4552;43.422;24.592;2024-01-27T17:45:48;3.27;;;2.20;;
9034;SDS011;4552;43.422;24.592;2024-01-27T17:48:15;2.93;;;2.00;;
9034;SDS011;4552;43.422;24.592;2024-01-27T17:50:42;3.37;;;2.07;;
9034;SDS011;4552;43.422;24.592;2024-01-27T17:53:09;4.17;;;1.80;;
9034;SDS011;4552;43.422;24.592;2024-01-27T17:55:42;3.90;;;2.07;;
9034;SDS011;4552;43.422;24.592;2024-01-27T17:58:17;3.30;;;1.90;;
9034;SDS011;4552;43.422;24.592;2024-01-27T18:00:44;7.27;;;2.00;;
9034;SDS011;4552;43.422;24.592;2024-01-27T18:03:13;2.27;;;1.80;;
9034;SDS011;4552;43.422;24.592;2024-01-27T18:05:40;2.57;;;2.27;;
9034;SDS011;4552;43.422;24.592;2024-01-27T18:08:14;2.90;;;1.87;;
9034;SDS011;4552;43.422;24.592;2024-01-27T18:10:41;2.77;;;1.90;;
9034;SDS011;4552;43.422;24.592;2024-01-27T18:13:08;2.80;;;1.80;;
9034;SDS011;4552;43.422;24.592;2024-01-27T18:15:35;1.90;;;1.80;;
9034;SDS011;4552;43.422;24.592;2024-01-27T18:18:02;4.30;;;1.97;;
9034;SDS011;4552;43.422;24.592;2024-01-27T18:20:31;2.30;;;1.80;;
9034;SDS011;4552;43.422;24.592;2024-01-27T19:30:49;3.20;;;2.50;;
9034;SDS011;4552;43.422;24.592;2024-01-27T19:33:17;3.70;;;2.20;;
9034;SDS011;4552;43.422;24.592;2024-01-27T19:35:47;5.30;;;2.80;;
9034;SDS011;4552;43.422;24.592;2024-01-27T19:51:01;4.30;;;2.77;;
9034;SDS011;4552;43.422;24.592;2024-01-27T19:53:28;5.07;;;2.07;;
9034;SDS011;4552;43.422;24.592;2024-01-27T19:55:55;3.67;;;2.30;;
9034;SDS011;4552;43.422;24.592;2024-01-27T19:58:26;2.77;;;2.20;;
9034;SDS011;4552;43.422;24.592;2024-01-27T20:00:54;3.10;;;2.00;;
9034;SDS011;4552;43.422;24.592;2024-01-27T20:03:21;2.33;;;1.83;;
9034;SDS011;4552;43.422;24.592;2024-01-27T20:05:50;4.07;;;2.30;;
9034;SDS011;4552;43.422;24.592;2024-01-27T20:08:18;4.60;;;2.27;;
9034;SDS011;4552;43.422;24.592;2024-01-27T20:10:47;2.73;;;2.20;;
9034;SDS011;4552;43.422;24.592;2024-01-27T20:13:14;5.00;;;2.63;;
9034;SDS011;4552;43.422;24.592;2024-01-27T20:15:41;5.83;;;2.90;;
9034;SDS011;4552;43.422;24.592;2024-01-27T20:18:08;3.30;;;2.33;;
9034;SDS011;4552;43.422;24.592;2024-01-27T20:20:35;4.83;;;2.37;;
9034;SDS011;4552;43.422;24.592;2024-01-27T20:23:05;5.63;;;2.30;;
9034;SDS011;4552;43.422;24.592;2024-01-27T20:25:32;2.83;;;2.40;;
9034;SDS011;4552;43.422;24.592;2024-01-27T20:27:59;3.17;;;2.30;;
9034;SDS011;4552;43.422;24.592;2024-01-27T20:30:26;4.17;;;2.57;;
9034;SDS011;4552;43.422;24.592;2024-01-27T20:32:53;5.20;;;2.63;;
9034;SDS011;4552;43.422;24.592;2024-01-27T20:35:23;4.50;;;2.70;;
9034;SDS011;4552;43.422;24.592;2024-01-27T20:37:51;6.13;;;2.40;;
9034;SDS011;4552;43.422;24.592;2024-01-27T20:40:20;2.83;;;2.20;;
9034;SDS011;4552;43.422;24.592;2024-01-27T20:42:47;3.70;;;2.70;;
9034;SDS011;4552;43.422;24.592;2024-01-27T20:45:14;4.67;;;2.40;;
9034;SDS011;4552;43.422;24.592;2024-01-27T20:47:41;5.57;;;2.57;;
9034;SDS011;4552;43.422;24.592;2024-01-27T20:50:09;5.37;;;2.37;;
9034;SDS011;4552;43.422;24.592;2024-01-27T20:55:59;5.00;;;2.27;;
9034;SDS011;4552;43.422;24.592;2024-01-27T20:58:26;6.23;;;2.50;;
9034;SDS011;4552;43.422;24.592;2024-01-27T21:00:54;2.57;;;2.27;;
9034;SDS011;4552;43.422;24.592;2024-01-27T21:03:21;3.17;;;2.30;;
9034;SDS011;4552;43.422;24.592;2024-01-27T21:05:48;5.70;;;2.50;;
9034;SDS011;4552;43.422;24.592;2024-01-27T21:08:15;3.53;;;2.40;;
9034;SDS011;4552;43.422;24.592;2024-01-27T21:10:43;3.57;;;2.57;;
9034;SDS011;4552;43.422;24.592;2024-01-27T21:13:11;7.87;;;2.30;;
9034;SDS011;4552;43.422;24.592;2024-01-27T21:15:38;2.93;;;1.83;;
9034;SDS011;4552;43.422;24.592;2024-01-27T21:18:05;2.20;;;2.00;;
9034;SDS011;4552;43.422;24.592;2024-01-27T21:20:37;3.40;;;2.37;;
9034;SDS011;4552;43.422;24.592;2024-01-27T21:30:08;2.10;;;2.00;;
9034;SDS011;4552;43.422;24.592;2024-01-27T21:32:35;2.50;;;2.30;;
9034;SDS011;4552;43.422;24.592;2024-01-27T21:35:03;2.97;;;2.00;;
9034;SDS011;4552;43.422;24.592;2024-01-27T21:37:38;6.90;;;2.30;;
9034;SDS011;4552;43.422;24.592;2024-01-27T21:40:15;6.23;;;2.27;;
9034;SDS011;4552;43.422;24.592;2024-01-27T21:42:43;2.00;;;1.80;;
9034;SDS011;4552;43.422;24.592;2024-01-27T21:45:12;4.57;;;2.30;;
9034;SDS011;4552;43.422;24.592;2024-01-27T21:47:39;2.00;;;1.90;;
9034;SDS011;4552;43.422;24.592;2024-01-27T21:50:06;2.67;;;2.20;;
9034;SDS011;4552;43.422;24.592;2024-01-27T22:29:06;7.00;;;2.13;;
9034;SDS011;4552;43.422;24.592;2024-01-27T22:31:36;2.87;;;2.17;;
9034;SDS011;4552;43.422;24.592;2024-01-27T22:34:03;2.33;;;2.13;;
9034;SDS011;4552;43.422;24.592;2024-01-27T22:36:30;5.53;;;2.03;;
9034;SDS011;4552;43.422;24.592;2024-01-27T22:45:44;3.93;;;2.30;;
9034;SDS011;4552;43.422;24.592;2024-01-27T22:48:11;2.57;;;2.10;;
9034;SDS011;4552;43.422;24.592;2024-01-27T22:50:40;3.73;;;1.77;;
9034;SDS011;4552;43.422;24.592;2024-01-27T23:02:52;3.03;;;2.53;;
9034;SDS011;4552;43.422;24.592;2024-01-27T23:05:22;3.77;;;2.30;;
9034;SDS011;4552;43.422;24.592;2024-01-27T23:21:19;3.70;;;1.90;;
9034;SDS011;4552;43.422;24.592;2024-01-27T23:27:11;4.23;;;2.30;;
9034;SDS011;4552;43.422;24.592;2024-01-27T23:29:41;6.30;;;2.27;;
9034;SDS011;4552;43.422;24.592;2024-01-27T23:32:42;5.63;;;2.20;;
9034;SDS011;4552;43.422;24.592;2024-01-27T23:35:13;3.43;;;2.30;;
9034;SDS011;4552;43.422;24.592;2024-01-27T23:51:10;2.07;;;1.87;;
9034;SDS011;4552;43.422;24.592;2024-01-27T23:56:59;3.63;;;2.03;;
9034;SDS011;4552;43.422;24.592;2024-01-27T23:59:26;2.10;;;1.90;;
